UAL2455 KEWR-KDEN
Flight info
| Callsign | UAL2455 |
|---|---|
| Flight time | 3h 25m |
| Altitude | 34000 |
| Route | NEWEL J60 DJB CPONE JOT J60 IOW OBH BRWRY LAWGR4 |
| Aircraft | A21N/M-SDE2E3FGHIJ1RWXY/LB1 |
Departure
| Time | 2026-04-22 12:38 |
|---|---|
| Airport | Newark Liberty International Airport (KEWR) |
Arrival
| Time | 2026-04-22 16:03 |
|---|---|
| Airport | Denver International Airport (KDEN) |
| Time | Latitude | Longitude | Altitude | Speed | Heading |
|---|---|---|---|---|---|
| 2026-04-22 12:04 | 40.68294 | -74.18350 | 28 ft | 0 kts | 5° |
| 2026-04-22 12:25 | 40.68286 | -74.18351 | 28 ft | 4 kts | 6° |
| 2026-04-22 12:25 | 40.68260 | -74.18359 | 28 ft | 4 kts | 33° |
| 2026-04-22 12:26 | 40.68245 | -74.18383 | 28 ft | 4 kts | 78° |
| 2026-04-22 12:26 | 40.68244 | -74.18398 | 28 ft | 0 kts | 95° |
| 2026-04-22 12:30 | 40.68243 | -74.18394 | 28 ft | 2 kts | 95° |
| 2026-04-22 12:31 | 40.68241 | -74.18352 | 28 ft | 7 kts | 94° |
| 2026-04-22 12:31 | 40.68236 | -74.18265 | 28 ft | 12 kts | 94° |
| 2026-04-22 12:31 | 40.68236 | -74.18137 | 27 ft | 16 kts | 89° |
| 2026-04-22 12:31 | 40.68279 | -74.18011 | 27 ft | 17 kts | 4° |
| 2026-04-22 12:32 | 40.68387 | -74.17978 | 27 ft | 12 kts | 88° |
| 2026-04-22 12:32 | 40.68297 | -74.17705 | 27 ft | 20 kts | 116° |
| 2026-04-22 12:32 | 40.68298 | -74.17626 | 27 ft | 9 kts | 38° |
| 2026-04-22 12:33 | 40.68367 | -74.17583 | 28 ft | 13 kts | 24° |
| 2026-04-22 12:33 | 40.68466 | -74.17525 | 28 ft | 18 kts | 27° |
| 2026-04-22 12:33 | 40.68585 | -74.17440 | 28 ft | 21 kts | 26° |
| 2026-04-22 12:33 | 40.68728 | -74.17349 | 28 ft | 24 kts | 26° |
| 2026-04-22 12:34 | 40.68886 | -74.17249 | 28 ft | 26 kts | 26° |
| 2026-04-22 12:34 | 40.69058 | -74.17138 | 27 ft | 29 kts | 25° |
| 2026-04-22 12:34 | 40.69207 | -74.17045 | 27 ft | 15 kts | 25° |
| 2026-04-22 12:34 | 40.69307 | -74.16981 | 27 ft | 17 kts | 26° |
| 2026-04-22 12:35 | 40.69417 | -74.16910 | 28 ft | 18 kts | 26° |
| 2026-04-22 12:35 | 40.69535 | -74.16834 | 27 ft | 20 kts | 25° |
| 2026-04-22 12:35 | 40.69665 | -74.16754 | 27 ft | 22 kts | 25° |
| 2026-04-22 12:35 | 40.69806 | -74.16664 | 26 ft | 24 kts | 26° |
| 2026-04-22 12:36 | 40.69960 | -74.16566 | 26 ft | 26 kts | 26° |
| 2026-04-22 12:36 | 40.70047 | -74.16510 | 26 ft | 5 kts | 26° |
| 2026-04-22 12:36 | 40.70063 | -74.16460 | 27 ft | 8 kts | 88° |
| 2026-04-22 12:36 | 40.70060 | -74.16380 | 25 ft | 10 kts | 114° |
| 2026-04-22 12:37 | 40.69989 | -74.16388 | 24 ft | 13 kts | 204° |
| 2026-04-22 12:37 | 40.69754 | -74.16533 | 26 ft | 74 kts | 207° |
| 2026-04-22 12:37 | 40.69062 | -74.16974 | 28 ft | 146 kts | 206° |
| 2026-04-22 12:37 | 40.68057 | -74.17633 | 376 ft | 168 kts | 206° |
| 2026-04-22 12:38 | 40.66977 | -74.18298 | 1077 ft | 171 kts | 200° |
| 2026-04-22 12:38 | 40.65844 | -74.18802 | 1711 ft | 180 kts | 199° |
| 2026-04-22 12:38 | 40.64654 | -74.19475 | 2268 ft | 193 kts | 206° |
| 2026-04-22 12:38 | 40.63427 | -74.20317 | 2910 ft | 206 kts | 211° |
| 2026-04-22 12:39 | 40.62302 | -74.21654 | 3392 ft | 232 kts | 232° |
| 2026-04-22 12:39 | 40.61773 | -74.26031 | 4692 ft | 268 kts | 287° |
| 2026-04-22 12:39 | 40.62703 | -74.28157 | 5657 ft | 270 kts | 310° |
| 2026-04-22 12:40 | 40.64170 | -74.29719 | 6637 ft | 273 kts | 326° |
| 2026-04-22 12:40 | 40.65882 | -74.30847 | 7544 ft | 277 kts | 333° |
| 2026-04-22 12:40 | 40.67660 | -74.31851 | 8409 ft | 280 kts | 334° |
| 2026-04-22 12:40 | 40.69463 | -74.32851 | 9224 ft | 284 kts | 333° |
| 2026-04-22 12:41 | 40.71075 | -74.34307 | 9994 ft | 281 kts | 310° |
| 2026-04-22 12:41 | 40.72147 | -74.36499 | 10461 ft | 294 kts | 290° |
| 2026-04-22 12:41 | 40.72813 | -74.39134 | 10760 ft | 314 kts | 286° |
| 2026-04-22 12:41 | 40.73474 | -74.41983 | 11111 ft | 334 kts | 287° |
| 2026-04-22 12:42 | 40.74181 | -74.44931 | 11795 ft | 341 kts | 288° |
| 2026-04-22 12:42 | 40.74916 | -74.47928 | 12596 ft | 344 kts | 288° |
| 2026-04-22 12:42 | 40.75664 | -74.50937 | 13383 ft | 349 kts | 288° |
| 2026-04-22 12:42 | 40.76427 | -74.53990 | 14176 ft | 352 kts | 288° |
| 2026-04-22 12:43 | 40.77199 | -74.57065 | 14915 ft | 355 kts | 289° |
| 2026-04-22 12:43 | 40.77982 | -74.60166 | 15599 ft | 357 kts | 288° |
| 2026-04-22 12:43 | 40.78769 | -74.63290 | 16217 ft | 361 kts | 288° |
| 2026-04-22 12:43 | 40.79560 | -74.66445 | 16811 ft | 363 kts | 288° |
| 2026-04-22 12:44 | 40.80367 | -74.69628 | 17363 ft | 368 kts | 289° |
| 2026-04-22 12:44 | 40.81186 | -74.72838 | 17885 ft | 371 kts | 289° |
| 2026-04-22 12:44 | 40.82008 | -74.76088 | 18440 ft | 374 kts | 288° |
| 2026-04-22 12:44 | 40.82817 | -74.79329 | 18963 ft | 379 kts | 288° |
| 2026-04-22 12:45 | 40.83646 | -74.82642 | 19477 ft | 382 kts | 288° |
| 2026-04-22 12:45 | 40.84477 | -74.85976 | 19960 ft | 384 kts | 288° |
| 2026-04-22 12:45 | 40.85309 | -74.89322 | 20364 ft | 384 kts | 288° |
| 2026-04-22 12:45 | 40.86147 | -74.92685 | 20722 ft | 388 kts | 288° |
| 2026-04-22 12:46 | 40.86991 | -74.96073 | 21064 ft | 389 kts | 288° |
| 2026-04-22 12:46 | 40.87839 | -74.99486 | 21407 ft | 390 kts | 288° |
| 2026-04-22 12:46 | 40.88687 | -75.02912 | 21704 ft | 393 kts | 288° |
| 2026-04-22 12:46 | 40.89535 | -75.06348 | 21958 ft | 395 kts | 288° |
| 2026-04-22 12:47 | 40.90388 | -75.09801 | 22203 ft | 395 kts | 288° |
| 2026-04-22 12:47 | 40.91149 | -75.13297 | 22416 ft | 397 kts | 282° |
| 2026-04-22 12:47 | 40.91486 | -75.16928 | 22599 ft | 399 kts | 272° |
| 2026-04-22 12:47 | 40.91294 | -75.20597 | 22775 ft | 402 kts | 262° |
| 2026-04-22 12:48 | 40.90606 | -75.24196 | 22956 ft | 405 kts | 255° |
| 2026-04-22 12:48 | 40.89752 | -75.27747 | 23143 ft | 406 kts | 254° |
| 2026-04-22 12:48 | 40.88942 | -75.31329 | 23303 ft | 406 kts | 260° |
| 2026-04-22 12:48 | 40.88690 | -75.35034 | 23475 ft | 405 kts | 270° |
| 2026-04-22 12:49 | 40.88661 | -75.38761 | 23647 ft | 406 kts | 271° |
| 2026-04-22 12:49 | 40.88644 | -75.42499 | 23826 ft | 407 kts | 270° |
| 2026-04-22 12:49 | 40.88609 | -75.46252 | 24001 ft | 408 kts | 270° |
| 2026-04-22 12:49 | 40.88561 | -75.50008 | 24173 ft | 410 kts | 270° |
| 2026-04-22 12:50 | 40.88505 | -75.53773 | 24340 ft | 411 kts | 270° |
| 2026-04-22 12:50 | 40.88447 | -75.57551 | 24510 ft | 411 kts | 270° |
| 2026-04-22 12:50 | 40.88387 | -75.61330 | 24670 ft | 412 kts | 270° |
| 2026-04-22 12:50 | 40.88326 | -75.65067 | 24815 ft | 413 kts | 270° |
| 2026-04-22 12:51 | 40.88262 | -75.68866 | 24962 ft | 414 kts | 270° |
| 2026-04-22 12:51 | 40.88196 | -75.72673 | 25107 ft | 415 kts | 270° |
| 2026-04-22 12:51 | 40.88128 | -75.76480 | 25253 ft | 415 kts | 270° |
| 2026-04-22 12:51 | 40.88060 | -75.80302 | 25398 ft | 416 kts | 270° |
| 2026-04-22 12:52 | 40.87991 | -75.84121 | 25526 ft | 417 kts | 270° |
| 2026-04-22 12:52 | 40.87919 | -75.87959 | 25658 ft | 418 kts | 270° |
| 2026-04-22 12:52 | 40.87847 | -75.91798 | 25773 ft | 418 kts | 270° |
| 2026-04-22 12:52 | 40.87774 | -75.95636 | 25887 ft | 419 kts | 270° |
| 2026-04-22 12:53 | 40.87698 | -75.99495 | 26013 ft | 420 kts | 270° |
| 2026-04-22 12:53 | 40.87622 | -76.03360 | 26136 ft | 421 kts | 270° |
| 2026-04-22 12:53 | 40.87544 | -76.07232 | 26265 ft | 422 kts | 270° |
| 2026-04-22 12:53 | 40.87464 | -76.11110 | 26387 ft | 422 kts | 270° |
| 2026-04-22 12:54 | 40.87410 | -76.13679 | 26466 ft | 423 kts | 270° |
| 2026-04-22 12:54 | 40.87329 | -76.17572 | 26597 ft | 424 kts | 270° |
| 2026-04-22 12:54 | 40.87245 | -76.21469 | 26707 ft | 425 kts | 270° |
| 2026-04-22 12:54 | 40.87160 | -76.25369 | 26818 ft | 425 kts | 270° |
| 2026-04-22 12:55 | 40.87074 | -76.29274 | 26924 ft | 426 kts | 270° |
| 2026-04-22 12:55 | 40.86987 | -76.33186 | 27032 ft | 426 kts | 270° |
| 2026-04-22 12:55 | 40.86899 | -76.37105 | 27135 ft | 427 kts | 270° |
| 2026-04-22 12:55 | 40.86810 | -76.41024 | 27241 ft | 428 kts | 270° |
| 2026-04-22 12:56 | 40.86717 | -76.44952 | 27337 ft | 428 kts | 270° |
| 2026-04-22 12:56 | 40.86619 | -76.48887 | 27420 ft | 429 kts | 270° |
| 2026-04-22 12:56 | 40.86526 | -76.52827 | 27526 ft | 429 kts | 270° |
| 2026-04-22 12:56 | 40.86431 | -76.56767 | 27635 ft | 430 kts | 270° |
| 2026-04-22 12:57 | 40.86333 | -76.60726 | 27752 ft | 431 kts | 269° |
| 2026-04-22 12:57 | 40.86234 | -76.64681 | 27865 ft | 431 kts | 269° |
| 2026-04-22 12:57 | 40.86133 | -76.68645 | 27959 ft | 432 kts | 269° |
| 2026-04-22 12:58 | 40.85928 | -76.76578 | 28124 ft | 433 kts | 269° |
| 2026-04-22 12:58 | 40.85716 | -76.84534 | 28287 ft | 434 kts | 269° |
| 2026-04-22 12:59 | 40.85497 | -76.92507 | 28445 ft | 435 kts | 269° |
| 2026-04-22 12:59 | 40.85273 | -77.00502 | 28579 ft | 436 kts | 269° |
| 2026-04-22 13:00 | 40.85043 | -77.08445 | 28755 ft | 435 kts | 269° |
| 2026-04-22 13:00 | 40.84809 | -77.16427 | 28932 ft | 434 kts | 269° |
| 2026-04-22 13:01 | 40.84566 | -77.24394 | 29089 ft | 434 kts | 269° |
| 2026-04-22 13:01 | 40.84318 | -77.32367 | 29256 ft | 434 kts | 269° |
| 2026-04-22 13:02 | 40.84069 | -77.40331 | 29397 ft | 434 kts | 269° |
| 2026-04-22 13:02 | 40.84583 | -77.48222 | 29525 ft | 431 kts | 281° |
| 2026-04-22 13:03 | 40.85695 | -77.55995 | 29639 ft | 431 kts | 282° |
| 2026-04-22 13:03 | 40.86785 | -77.63768 | 29727 ft | 430 kts | 281° |
| 2026-04-22 13:04 | 40.87855 | -77.71553 | 29811 ft | 430 kts | 281° |
| 2026-04-22 13:04 | 40.88917 | -77.79331 | 29917 ft | 430 kts | 281° |
| 2026-04-22 13:05 | 40.89972 | -77.87108 | 30043 ft | 430 kts | 281° |
| 2026-04-22 13:05 | 40.91024 | -77.94888 | 30146 ft | 430 kts | 281° |
| 2026-04-22 13:06 | 40.92056 | -78.02666 | 30244 ft | 430 kts | 280° |
| 2026-04-22 13:06 | 40.93016 | -78.10469 | 30324 ft | 430 kts | 280° |
| 2026-04-22 13:07 | 40.93973 | -78.18268 | 30428 ft | 430 kts | 280° |
| 2026-04-22 13:07 | 40.94925 | -78.26072 | 30558 ft | 429 kts | 280° |
| 2026-04-22 13:08 | 40.95878 | -78.33877 | 30666 ft | 430 kts | 280° |
| 2026-04-22 13:08 | 40.96822 | -78.41678 | 30765 ft | 429 kts | 280° |
| 2026-04-22 13:09 | 40.97756 | -78.49424 | 30849 ft | 430 kts | 280° |
| 2026-04-22 13:09 | 40.98701 | -78.57279 | 30947 ft | 429 kts | 280° |
| 2026-04-22 13:10 | 40.99624 | -78.65023 | 31022 ft | 429 kts | 280° |
| 2026-04-22 13:10 | 41.00551 | -78.72820 | 31081 ft | 429 kts | 280° |
| 2026-04-22 13:11 | 41.01470 | -78.80624 | 31132 ft | 429 kts | 279° |
| 2026-04-22 13:11 | 41.02376 | -78.88428 | 31213 ft | 429 kts | 279° |
| 2026-04-22 13:12 | 41.03281 | -78.96226 | 31284 ft | 429 kts | 280° |
| 2026-04-22 13:12 | 41.04188 | -79.04029 | 31345 ft | 429 kts | 279° |
| 2026-04-22 13:13 | 41.05082 | -79.11824 | 31419 ft | 428 kts | 279° |
| 2026-04-22 13:13 | 41.05974 | -79.19617 | 31483 ft | 428 kts | 279° |
| 2026-04-22 13:14 | 41.06860 | -79.27414 | 31529 ft | 428 kts | 279° |
| 2026-04-22 13:14 | 41.07741 | -79.35216 | 31569 ft | 428 kts | 279° |
| 2026-04-22 13:15 | 41.08618 | -79.43032 | 31632 ft | 429 kts | 279° |
| 2026-04-22 13:15 | 41.09485 | -79.50845 | 31694 ft | 428 kts | 279° |
| 2026-04-22 13:16 | 41.10345 | -79.58657 | 31749 ft | 428 kts | 279° |
| 2026-04-22 13:16 | 41.11204 | -79.66474 | 31805 ft | 428 kts | 279° |
| 2026-04-22 13:17 | 41.12058 | -79.74283 | 31867 ft | 428 kts | 279° |
| 2026-04-22 13:17 | 41.12911 | -79.82086 | 31919 ft | 428 kts | 279° |
| 2026-04-22 13:18 | 41.13748 | -79.89847 | 32003 ft | 428 kts | 279° |
| 2026-04-22 13:18 | 41.14584 | -79.97658 | 32074 ft | 428 kts | 279° |
| 2026-04-22 13:19 | 41.15417 | -80.05466 | 32116 ft | 428 kts | 279° |
| 2026-04-22 13:19 | 41.16254 | -80.13288 | 32154 ft | 428 kts | 279° |
| 2026-04-22 13:20 | 41.17081 | -80.21111 | 32202 ft | 428 kts | 279° |
| 2026-04-22 13:20 | 41.17903 | -80.28988 | 32253 ft | 428 kts | 279° |
| 2026-04-22 13:21 | 41.18716 | -80.36816 | 32301 ft | 428 kts | 279° |
| 2026-04-22 13:21 | 41.19518 | -80.44592 | 32351 ft | 428 kts | 279° |
| 2026-04-22 13:22 | 41.20318 | -80.52428 | 32403 ft | 428 kts | 279° |
| 2026-04-22 13:22 | 41.21110 | -80.60255 | 32456 ft | 427 kts | 279° |
| 2026-04-22 13:23 | 41.21900 | -80.68074 | 32503 ft | 427 kts | 279° |
| 2026-04-22 13:23 | 41.22683 | -80.75896 | 32541 ft | 427 kts | 279° |
| 2026-04-22 13:24 | 41.23461 | -80.83719 | 32579 ft | 427 kts | 279° |
| 2026-04-22 13:24 | 41.24233 | -80.91537 | 32596 ft | 427 kts | 279° |
| 2026-04-22 13:25 | 41.25001 | -80.99365 | 32615 ft | 427 kts | 279° |
| 2026-04-22 13:25 | 41.25761 | -81.07187 | 32655 ft | 427 kts | 279° |
| 2026-04-22 13:26 | 41.26519 | -81.15020 | 32687 ft | 427 kts | 279° |
| 2026-04-22 13:26 | 41.27270 | -81.22853 | 32716 ft | 427 kts | 279° |
| 2026-04-22 13:27 | 41.28016 | -81.30684 | 32773 ft | 427 kts | 279° |
| 2026-04-22 13:27 | 41.28758 | -81.38523 | 32824 ft | 427 kts | 279° |
| 2026-04-22 13:28 | 41.29493 | -81.46357 | 32867 ft | 427 kts | 279° |
| 2026-04-22 13:28 | 41.30225 | -81.54197 | 32908 ft | 427 kts | 279° |
| 2026-04-22 13:29 | 41.30947 | -81.62035 | 32945 ft | 427 kts | 279° |
| 2026-04-22 13:29 | 41.31662 | -81.69873 | 32995 ft | 426 kts | 279° |
| 2026-04-22 13:30 | 41.32371 | -81.77664 | 33180 ft | 421 kts | 279° |
| 2026-04-22 13:30 | 41.32720 | -81.81508 | 33286 ft | 417 kts | 279° |
| 2026-04-22 13:30 | 41.33065 | -81.85321 | 33401 ft | 413 kts | 279° |
| 2026-04-22 13:30 | 41.33405 | -81.89102 | 33524 ft | 410 kts | 279° |
| 2026-04-22 13:31 | 41.33740 | -81.92847 | 33644 ft | 406 kts | 279° |
| 2026-04-22 13:31 | 41.34069 | -81.96554 | 33751 ft | 401 kts | 279° |
| 2026-04-22 13:31 | 41.34391 | -82.00173 | 33879 ft | 397 kts | 279° |
| 2026-04-22 13:31 | 41.34712 | -82.03801 | 33998 ft | 393 kts | 279° |
| 2026-04-22 13:32 | 41.35028 | -82.07396 | 34081 ft | 390 kts | 279° |
| 2026-04-22 13:32 | 41.35657 | -82.14557 | 34077 ft | 389 kts | 279° |
| 2026-04-22 13:33 | 41.36137 | -82.21735 | 34064 ft | 389 kts | 277° |
| 2026-04-22 13:33 | 41.36556 | -82.28921 | 34061 ft | 389 kts | 277° |
| 2026-04-22 13:34 | 41.36975 | -82.36100 | 34060 ft | 389 kts | 277° |
| 2026-04-22 13:34 | 41.37394 | -82.43276 | 34060 ft | 389 kts | 277° |
| 2026-04-22 13:35 | 41.37805 | -82.50450 | 34060 ft | 389 kts | 277° |
| 2026-04-22 13:35 | 41.38214 | -82.57624 | 34053 ft | 389 kts | 277° |
| 2026-04-22 13:36 | 41.38615 | -82.64794 | 34050 ft | 388 kts | 277° |
| 2026-04-22 13:36 | 41.39012 | -82.71956 | 34050 ft | 388 kts | 277° |
| 2026-04-22 13:37 | 41.39402 | -82.79109 | 34049 ft | 387 kts | 277° |
| 2026-04-22 13:37 | 41.39789 | -82.86247 | 34048 ft | 386 kts | 277° |
| 2026-04-22 13:38 | 41.40176 | -82.93386 | 34051 ft | 386 kts | 277° |
| 2026-04-22 13:38 | 41.40738 | -83.04028 | 34061 ft | 386 kts | 277° |
| 2026-04-22 13:39 | 41.41103 | -83.11155 | 34060 ft | 385 kts | 277° |
| 2026-04-22 13:39 | 41.41467 | -83.18284 | 34061 ft | 386 kts | 277° |
| 2026-04-22 13:40 | 41.41831 | -83.25413 | 34059 ft | 386 kts | 277° |
| 2026-04-22 13:40 | 41.42190 | -83.32545 | 34059 ft | 386 kts | 277° |
| 2026-04-22 13:41 | 41.42543 | -83.39687 | 34059 ft | 386 kts | 277° |
| 2026-04-22 13:41 | 41.42892 | -83.46824 | 34060 ft | 386 kts | 277° |
| 2026-04-22 13:42 | 41.43235 | -83.53977 | 34060 ft | 387 kts | 277° |
| 2026-04-22 13:42 | 41.43568 | -83.61138 | 34059 ft | 387 kts | 277° |
| 2026-04-22 13:43 | 41.43844 | -83.67095 | 34061 ft | 388 kts | 277° |
| 2026-04-22 13:43 | 41.44174 | -83.74272 | 34061 ft | 388 kts | 277° |
| 2026-04-22 13:44 | 41.44499 | -83.81462 | 34054 ft | 389 kts | 277° |
| 2026-04-22 13:44 | 41.44829 | -83.88668 | 34052 ft | 389 kts | 277° |
| 2026-04-22 13:45 | 41.45144 | -83.95872 | 34049 ft | 389 kts | 277° |
| 2026-04-22 13:45 | 41.45463 | -84.03087 | 34051 ft | 391 kts | 277° |
| 2026-04-22 13:46 | 41.45787 | -84.10321 | 34048 ft | 391 kts | 277° |
| 2026-04-22 13:46 | 41.46094 | -84.17571 | 34050 ft | 392 kts | 277° |
| 2026-04-22 13:47 | 41.46405 | -84.24838 | 34050 ft | 393 kts | 277° |
| 2026-04-22 13:47 | 41.46700 | -84.32123 | 34050 ft | 395 kts | 277° |
| 2026-04-22 13:48 | 41.47001 | -84.39437 | 34049 ft | 396 kts | 277° |
| 2026-04-22 13:48 | 41.47303 | -84.46778 | 34052 ft | 397 kts | 277° |
| 2026-04-22 13:49 | 41.47595 | -84.54145 | 34049 ft | 398 kts | 277° |
| 2026-04-22 13:49 | 41.47883 | -84.61537 | 34050 ft | 400 kts | 276° |
| 2026-04-22 13:50 | 41.48166 | -84.68959 | 34049 ft | 402 kts | 276° |
| 2026-04-22 13:50 | 41.48441 | -84.76411 | 34037 ft | 402 kts | 276° |
| 2026-04-22 13:51 | 41.48712 | -84.83861 | 34036 ft | 402 kts | 276° |
| 2026-04-22 13:51 | 41.48984 | -84.91328 | 34030 ft | 404 kts | 276° |
| 2026-04-22 13:52 | 41.49262 | -84.98825 | 34032 ft | 405 kts | 276° |
| 2026-04-22 13:52 | 41.49525 | -85.06270 | 34044 ft | 405 kts | 276° |
| 2026-04-22 13:53 | 41.49786 | -85.13780 | 34041 ft | 405 kts | 276° |
| 2026-04-22 13:53 | 41.50045 | -85.21287 | 34040 ft | 406 kts | 276° |
| 2026-04-22 13:54 | 41.50284 | -85.28793 | 34036 ft | 405 kts | 276° |
| 2026-04-22 13:54 | 41.50533 | -85.36296 | 34040 ft | 405 kts | 276° |
| 2026-04-22 13:55 | 41.50776 | -85.43795 | 34036 ft | 404 kts | 276° |
| 2026-04-22 13:55 | 41.51006 | -85.51285 | 34043 ft | 404 kts | 276° |
| 2026-04-22 13:56 | 41.51227 | -85.58766 | 34041 ft | 403 kts | 276° |
| 2026-04-22 13:56 | 41.51456 | -85.66259 | 34039 ft | 405 kts | 276° |
| 2026-04-22 13:57 | 41.51675 | -85.73795 | 34030 ft | 408 kts | 276° |
| 2026-04-22 13:57 | 41.51889 | -85.81359 | 34033 ft | 408 kts | 276° |
| 2026-04-22 13:58 | 41.52102 | -85.88938 | 34041 ft | 409 kts | 276° |
| 2026-04-22 13:58 | 41.52307 | -85.96545 | 34043 ft | 410 kts | 276° |
| 2026-04-22 13:59 | 41.52508 | -86.04169 | 34043 ft | 412 kts | 275° |
| 2026-04-22 13:59 | 41.52647 | -86.11849 | 34043 ft | 416 kts | 275° |
| 2026-04-22 14:00 | 41.52781 | -86.19586 | 34043 ft | 419 kts | 275° |
| 2026-04-22 14:00 | 41.52914 | -86.27378 | 34044 ft | 422 kts | 275° |
| 2026-04-22 14:01 | 41.53050 | -86.35240 | 34045 ft | 426 kts | 275° |
| 2026-04-22 14:01 | 41.53185 | -86.43175 | 34043 ft | 429 kts | 275° |
| 2026-04-22 14:02 | 41.53311 | -86.51168 | 34044 ft | 432 kts | 274° |
| 2026-04-22 14:02 | 41.53429 | -86.59151 | 34038 ft | 433 kts | 274° |
| 2026-04-22 14:03 | 41.53542 | -86.67193 | 34043 ft | 433 kts | 274° |
| 2026-04-22 14:03 | 41.53647 | -86.75264 | 34042 ft | 435 kts | 274° |
| 2026-04-22 14:04 | 41.53752 | -86.83330 | 34043 ft | 436 kts | 274° |
| 2026-04-22 14:04 | 41.53843 | -86.91404 | 34031 ft | 435 kts | 274° |
| 2026-04-22 14:05 | 41.53937 | -86.99498 | 34049 ft | 437 kts | 274° |
| 2026-04-22 14:06 | 41.54068 | -87.11623 | 34052 ft | 436 kts | 274° |
| 2026-04-22 14:06 | 41.54145 | -87.19699 | 34036 ft | 436 kts | 274° |
| 2026-04-22 14:07 | 41.54216 | -87.27779 | 34038 ft | 436 kts | 274° |
| 2026-04-22 14:07 | 41.54284 | -87.35868 | 34024 ft | 435 kts | 274° |
| 2026-04-22 14:08 | 41.54341 | -87.43963 | 34023 ft | 435 kts | 273° |
| 2026-04-22 14:08 | 41.54401 | -87.52050 | 34039 ft | 437 kts | 273° |
| 2026-04-22 14:09 | 41.54449 | -87.60134 | 34038 ft | 436 kts | 273° |
| 2026-04-22 14:09 | 41.54492 | -87.68220 | 34042 ft | 435 kts | 273° |
| 2026-04-22 14:10 | 41.54532 | -87.76308 | 34035 ft | 435 kts | 273° |
| 2026-04-22 14:10 | 41.54562 | -87.84340 | 34045 ft | 437 kts | 273° |
| 2026-04-22 14:11 | 41.54584 | -87.92428 | 34038 ft | 436 kts | 273° |
| 2026-04-22 14:11 | 41.54604 | -88.00515 | 34041 ft | 436 kts | 273° |
| 2026-04-22 14:12 | 41.54622 | -88.08611 | 34041 ft | 435 kts | 273° |
| 2026-04-22 14:12 | 41.54630 | -88.16714 | 34031 ft | 435 kts | 273° |
| 2026-04-22 14:13 | 41.54634 | -88.24809 | 34038 ft | 436 kts | 272° |
| 2026-04-22 14:13 | 41.54633 | -88.32907 | 34034 ft | 436 kts | 272° |
| 2026-04-22 14:14 | 41.54673 | -88.40994 | 34036 ft | 437 kts | 273° |
| 2026-04-22 14:14 | 41.54713 | -88.49081 | 34034 ft | 436 kts | 273° |
| 2026-04-22 14:15 | 41.54749 | -88.57179 | 34034 ft | 436 kts | 273° |
| 2026-04-22 14:15 | 41.54780 | -88.65275 | 34028 ft | 436 kts | 273° |
| 2026-04-22 14:16 | 41.54805 | -88.73316 | 34026 ft | 436 kts | 273° |
| 2026-04-22 14:16 | 41.54826 | -88.81416 | 34032 ft | 436 kts | 272° |
| 2026-04-22 14:17 | 41.54838 | -88.89522 | 34025 ft | 436 kts | 272° |
| 2026-04-22 14:17 | 41.54842 | -88.97625 | 34024 ft | 437 kts | 272° |
| 2026-04-22 14:18 | 41.54840 | -89.05737 | 34038 ft | 438 kts | 272° |
| 2026-04-22 14:18 | 41.54838 | -89.13841 | 34042 ft | 438 kts | 272° |
| 2026-04-22 14:19 | 41.54830 | -89.21950 | 34045 ft | 438 kts | 272° |
| 2026-04-22 14:19 | 41.54809 | -89.30066 | 34039 ft | 438 kts | 272° |
| 2026-04-22 14:20 | 41.54769 | -89.42246 | 34044 ft | 438 kts | 272° |
| 2026-04-22 14:20 | 41.54737 | -89.50365 | 34043 ft | 438 kts | 272° |
| 2026-04-22 14:21 | 41.54678 | -89.62561 | 34043 ft | 439 kts | 272° |
| 2026-04-22 14:22 | 41.54605 | -89.74730 | 34039 ft | 438 kts | 271° |
| 2026-04-22 14:23 | 41.54519 | -89.86942 | 34034 ft | 440 kts | 271° |
| 2026-04-22 14:23 | 41.54455 | -89.95099 | 34043 ft | 439 kts | 271° |
| 2026-04-22 14:24 | 41.54386 | -90.03245 | 34037 ft | 439 kts | 271° |
| 2026-04-22 14:24 | 41.54312 | -90.11391 | 34040 ft | 439 kts | 271° |
| 2026-04-22 14:25 | 41.54231 | -90.19538 | 34036 ft | 438 kts | 271° |
| 2026-04-22 14:25 | 41.54144 | -90.27675 | 34037 ft | 438 kts | 271° |
| 2026-04-22 14:26 | 41.54051 | -90.35797 | 34031 ft | 438 kts | 271° |
| 2026-04-22 14:26 | 41.53949 | -90.43922 | 34033 ft | 437 kts | 271° |
| 2026-04-22 14:27 | 41.53849 | -90.52034 | 34034 ft | 437 kts | 271° |
| 2026-04-22 14:27 | 41.53741 | -90.60160 | 34042 ft | 438 kts | 271° |
| 2026-04-22 14:28 | 41.53627 | -90.68272 | 34044 ft | 438 kts | 271° |
| 2026-04-22 14:28 | 41.53505 | -90.76328 | 34045 ft | 438 kts | 271° |
| 2026-04-22 14:29 | 41.53378 | -90.84431 | 34033 ft | 436 kts | 271° |
| 2026-04-22 14:29 | 41.53244 | -90.92525 | 34035 ft | 436 kts | 271° |
| 2026-04-22 14:30 | 41.53102 | -91.00629 | 34049 ft | 436 kts | 271° |
| 2026-04-22 14:30 | 41.52961 | -91.08721 | 34051 ft | 436 kts | 271° |
| 2026-04-22 14:31 | 41.52815 | -91.16797 | 34050 ft | 435 kts | 271° |
| 2026-04-22 14:31 | 41.52661 | -91.24861 | 34051 ft | 435 kts | 271° |
| 2026-04-22 14:32 | 41.52502 | -91.32918 | 34053 ft | 434 kts | 271° |
| 2026-04-22 14:32 | 41.52339 | -91.40975 | 34051 ft | 434 kts | 271° |
| 2026-04-22 14:33 | 41.52166 | -91.49026 | 34052 ft | 434 kts | 271° |
| 2026-04-22 14:33 | 41.51989 | -91.57066 | 34052 ft | 433 kts | 271° |
| 2026-04-22 14:34 | 41.51912 | -91.63738 | 34051 ft | 432 kts | 273° |
| 2026-04-22 14:34 | 41.51969 | -91.71751 | 34051 ft | 432 kts | 273° |
| 2026-04-22 14:35 | 41.52030 | -91.81073 | 34050 ft | 432 kts | 273° |
| 2026-04-22 14:35 | 41.52068 | -91.87786 | 34051 ft | 432 kts | 273° |
| 2026-04-22 14:36 | 41.52114 | -91.95798 | 34052 ft | 432 kts | 273° |
| 2026-04-22 14:36 | 41.52152 | -92.03806 | 34048 ft | 432 kts | 272° |
| 2026-04-22 14:37 | 41.52184 | -92.11844 | 34045 ft | 433 kts | 272° |
| 2026-04-22 14:37 | 41.52210 | -92.19875 | 34049 ft | 433 kts | 272° |
| 2026-04-22 14:38 | 41.52230 | -92.27918 | 34050 ft | 433 kts | 272° |
| 2026-04-22 14:38 | 41.52241 | -92.35950 | 34053 ft | 433 kts | 272° |
| 2026-04-22 14:39 | 41.52256 | -92.43998 | 34052 ft | 434 kts | 272° |
| 2026-04-22 14:39 | 41.52261 | -92.52040 | 34050 ft | 434 kts | 272° |
| 2026-04-22 14:40 | 41.52255 | -92.64114 | 34052 ft | 434 kts | 272° |
| 2026-04-22 14:40 | 41.52247 | -92.72110 | 34053 ft | 434 kts | 272° |
| 2026-04-22 14:41 | 41.52230 | -92.80179 | 34050 ft | 434 kts | 272° |
| 2026-04-22 14:41 | 41.52205 | -92.88233 | 34049 ft | 435 kts | 272° |
| 2026-04-22 14:42 | 41.52178 | -92.96300 | 34038 ft | 435 kts | 272° |
| 2026-04-22 14:42 | 41.52146 | -93.04369 | 34042 ft | 435 kts | 272° |
| 2026-04-22 14:43 | 41.52107 | -93.12448 | 34042 ft | 435 kts | 271° |
| 2026-04-22 14:43 | 41.52063 | -93.20516 | 34036 ft | 435 kts | 271° |
| 2026-04-22 14:44 | 41.52013 | -93.28598 | 34042 ft | 435 kts | 271° |
| 2026-04-22 14:44 | 41.51959 | -93.36673 | 34043 ft | 436 kts | 271° |
| 2026-04-22 14:45 | 41.51898 | -93.44753 | 34040 ft | 435 kts | 271° |
| 2026-04-22 14:45 | 41.51833 | -93.52833 | 34032 ft | 435 kts | 271° |
| 2026-04-22 14:46 | 41.51757 | -93.60908 | 34035 ft | 436 kts | 271° |
| 2026-04-22 14:46 | 41.51678 | -93.68983 | 34045 ft | 435 kts | 271° |
| 2026-04-22 14:47 | 41.51596 | -93.77062 | 34039 ft | 435 kts | 271° |
| 2026-04-22 14:47 | 41.51506 | -93.85139 | 34036 ft | 435 kts | 271° |
| 2026-04-22 14:48 | 41.51412 | -93.93216 | 34034 ft | 436 kts | 271° |
| 2026-04-22 14:48 | 41.51312 | -94.01295 | 34046 ft | 435 kts | 271° |
| 2026-04-22 14:49 | 41.51206 | -94.09373 | 34030 ft | 436 kts | 271° |
| 2026-04-22 14:49 | 41.51094 | -94.17398 | 34033 ft | 436 kts | 271° |
| 2026-04-22 14:50 | 41.50978 | -94.25472 | 34032 ft | 435 kts | 270° |
| 2026-04-22 14:50 | 41.50855 | -94.33546 | 34025 ft | 435 kts | 270° |
| 2026-04-22 14:51 | 41.50729 | -94.41617 | 34031 ft | 435 kts | 270° |
| 2026-04-22 14:51 | 41.50593 | -94.49694 | 34023 ft | 435 kts | 270° |
| 2026-04-22 14:52 | 41.50451 | -94.57769 | 34018 ft | 435 kts | 270° |
| 2026-04-22 14:52 | 41.50304 | -94.65844 | 34022 ft | 436 kts | 270° |
| 2026-04-22 14:53 | 41.50149 | -94.73916 | 34023 ft | 435 kts | 270° |
| 2026-04-22 14:53 | 41.49995 | -94.81993 | 34016 ft | 436 kts | 270° |
| 2026-04-22 14:54 | 41.49830 | -94.90067 | 34017 ft | 435 kts | 270° |
| 2026-04-22 14:54 | 41.49662 | -94.98137 | 34013 ft | 435 kts | 270° |
| 2026-04-22 14:55 | 41.49489 | -95.06206 | 34012 ft | 435 kts | 270° |
| 2026-04-22 14:55 | 41.49311 | -95.14228 | 34011 ft | 436 kts | 270° |
| 2026-04-22 14:56 | 41.49125 | -95.22353 | 34010 ft | 435 kts | 270° |
| 2026-04-22 14:56 | 41.48935 | -95.30412 | 34010 ft | 435 kts | 269° |
| 2026-04-22 14:57 | 41.48737 | -95.38475 | 34009 ft | 435 kts | 269° |
| 2026-04-22 14:57 | 41.48537 | -95.46468 | 34010 ft | 434 kts | 269° |
| 2026-04-22 14:58 | 41.48329 | -95.54513 | 34011 ft | 434 kts | 269° |
| 2026-04-22 14:58 | 41.48116 | -95.62560 | 34007 ft | 434 kts | 269° |
| 2026-04-22 14:59 | 41.47901 | -95.70603 | 34002 ft | 434 kts | 269° |
| 2026-04-22 14:59 | 41.47676 | -95.78649 | 33999 ft | 434 kts | 269° |
| 2026-04-22 15:00 | 41.47445 | -95.86689 | 33999 ft | 434 kts | 269° |
| 2026-04-22 15:00 | 41.47213 | -95.94737 | 33998 ft | 434 kts | 269° |
| 2026-04-22 15:01 | 41.46968 | -96.02776 | 33991 ft | 434 kts | 269° |
| 2026-04-22 15:01 | 41.46720 | -96.10813 | 33992 ft | 434 kts | 269° |
| 2026-04-22 15:02 | 41.46470 | -96.18857 | 33991 ft | 434 kts | 268° |
| 2026-04-22 15:02 | 41.46215 | -96.26891 | 33992 ft | 434 kts | 268° |
| 2026-04-22 15:03 | 41.45952 | -96.34920 | 33991 ft | 433 kts | 268° |
| 2026-04-22 15:03 | 41.45683 | -96.42941 | 33989 ft | 433 kts | 268° |
| 2026-04-22 15:04 | 41.45409 | -96.50953 | 33991 ft | 433 kts | 268° |
| 2026-04-22 15:04 | 41.45127 | -96.58964 | 33989 ft | 433 kts | 268° |
| 2026-04-22 15:05 | 41.44840 | -96.66971 | 33992 ft | 433 kts | 268° |
| 2026-04-22 15:05 | 41.44555 | -96.74989 | 33990 ft | 433 kts | 267° |
| 2026-04-22 15:06 | 41.44258 | -96.82990 | 33985 ft | 432 kts | 267° |
| 2026-04-22 15:06 | 41.43958 | -96.91001 | 33982 ft | 433 kts | 267° |
| 2026-04-22 15:07 | 41.43650 | -96.99011 | 33980 ft | 433 kts | 267° |
| 2026-04-22 15:07 | 41.43338 | -97.07020 | 33972 ft | 433 kts | 267° |
| 2026-04-22 15:08 | 41.43019 | -97.15014 | 33968 ft | 432 kts | 267° |
| 2026-04-22 15:08 | 41.42693 | -97.23003 | 33958 ft | 431 kts | 266° |
| 2026-04-22 15:09 | 41.42363 | -97.30985 | 33968 ft | 432 kts | 266° |
| 2026-04-22 15:09 | 41.42035 | -97.38916 | 33963 ft | 431 kts | 266° |
| 2026-04-22 15:10 | 41.41692 | -97.46949 | 33961 ft | 431 kts | 266° |
| 2026-04-22 15:10 | 41.41350 | -97.54866 | 33964 ft | 431 kts | 266° |
| 2026-04-22 15:11 | 41.40998 | -97.62836 | 33990 ft | 432 kts | 266° |
| 2026-04-22 15:11 | 41.40825 | -97.66829 | 34140 ft | 432 kts | 266° |
| 2026-04-22 15:11 | 41.40646 | -97.70817 | 34296 ft | 431 kts | 266° |
| 2026-04-22 15:12 | 41.40467 | -97.74805 | 34456 ft | 431 kts | 266° |
| 2026-04-22 15:12 | 41.40285 | -97.78794 | 34601 ft | 432 kts | 266° |
| 2026-04-22 15:12 | 41.40101 | -97.82782 | 34744 ft | 432 kts | 266° |
| 2026-04-22 15:12 | 41.39913 | -97.86770 | 34897 ft | 432 kts | 266° |
| 2026-04-22 15:13 | 41.39728 | -97.90765 | 35041 ft | 432 kts | 266° |
| 2026-04-22 15:13 | 41.39542 | -97.94752 | 35182 ft | 432 kts | 266° |
| 2026-04-22 15:13 | 41.39352 | -97.98740 | 35310 ft | 432 kts | 266° |
| 2026-04-22 15:13 | 41.39158 | -98.02725 | 35440 ft | 431 kts | 266° |
| 2026-04-22 15:14 | 41.38964 | -98.06711 | 35560 ft | 432 kts | 266° |
| 2026-04-22 15:14 | 41.38773 | -98.10696 | 35682 ft | 431 kts | 266° |
| 2026-04-22 15:14 | 41.38583 | -98.14688 | 35798 ft | 431 kts | 266° |
| 2026-04-22 15:14 | 41.38386 | -98.18674 | 35899 ft | 431 kts | 265° |
| 2026-04-22 15:15 | 41.37992 | -98.26646 | 35954 ft | 431 kts | 265° |
| 2026-04-22 15:15 | 41.37525 | -98.34603 | 35934 ft | 431 kts | 261° |
| 2026-04-22 15:16 | 41.35923 | -98.42270 | 35922 ft | 430 kts | 252° |
| 2026-04-22 15:16 | 41.34033 | -98.49833 | 35920 ft | 431 kts | 251° |
| 2026-04-22 15:17 | 41.32156 | -98.57426 | 35913 ft | 432 kts | 252° |
| 2026-04-22 15:17 | 41.30287 | -98.65031 | 35910 ft | 432 kts | 252° |
| 2026-04-22 15:18 | 41.28414 | -98.72624 | 35910 ft | 432 kts | 251° |
| 2026-04-22 15:18 | 41.26530 | -98.80215 | 35910 ft | 432 kts | 251° |
| 2026-04-22 15:19 | 41.24641 | -98.87797 | 35910 ft | 432 kts | 251° |
| 2026-04-22 15:19 | 41.22769 | -98.95329 | 35910 ft | 432 kts | 251° |
| 2026-04-22 15:20 | 41.20873 | -99.02895 | 35900 ft | 432 kts | 251° |
| 2026-04-22 15:20 | 41.18973 | -99.10459 | 35893 ft | 432 kts | 251° |
| 2026-04-22 15:21 | 41.17067 | -99.18020 | 35890 ft | 432 kts | 251° |
| 2026-04-22 15:21 | 41.15159 | -99.25584 | 35891 ft | 432 kts | 251° |
| 2026-04-22 15:22 | 41.13239 | -99.33146 | 35891 ft | 432 kts | 251° |
| 2026-04-22 15:22 | 41.11645 | -99.39425 | 35891 ft | 432 kts | 251° |
| 2026-04-22 15:23 | 41.09720 | -99.46983 | 35890 ft | 433 kts | 251° |
| 2026-04-22 15:23 | 41.07788 | -99.54534 | 35891 ft | 432 kts | 251° |
| 2026-04-22 15:24 | 41.05856 | -99.62079 | 35891 ft | 433 kts | 250° |
| 2026-04-22 15:24 | 41.03917 | -99.69626 | 35890 ft | 433 kts | 250° |
| 2026-04-22 15:25 | 41.01971 | -99.77167 | 35889 ft | 433 kts | 250° |
| 2026-04-22 15:25 | 41.00019 | -99.84711 | 35889 ft | 433 kts | 250° |
| 2026-04-22 15:26 | 40.98060 | -99.92250 | 35889 ft | 433 kts | 250° |
| 2026-04-22 15:26 | 40.96098 | -99.99780 | 35890 ft | 433 kts | 250° |
| 2026-04-22 15:27 | 40.94130 | -100.07310 | 35890 ft | 433 kts | 250° |
| 2026-04-22 15:27 | 40.92150 | -100.14843 | 35882 ft | 434 kts | 250° |
| 2026-04-22 15:28 | 40.90171 | -100.22373 | 35881 ft | 434 kts | 250° |
| 2026-04-22 15:28 | 40.88191 | -100.29891 | 35878 ft | 433 kts | 250° |
| 2026-04-22 15:29 | 40.86215 | -100.37356 | 35869 ft | 433 kts | 250° |
| 2026-04-22 15:30 | 40.83207 | -100.48621 | 35867 ft | 434 kts | 249° |
| 2026-04-22 15:30 | 40.81198 | -100.56122 | 35858 ft | 434 kts | 250° |
| 2026-04-22 15:31 | 40.79199 | -100.63633 | 35856 ft | 433 kts | 250° |
| 2026-04-22 15:31 | 40.77670 | -100.71331 | 35855 ft | 434 kts | 256° |
| 2026-04-22 15:32 | 40.76368 | -100.79110 | 35848 ft | 435 kts | 256° |
| 2026-04-22 15:32 | 40.75048 | -100.86893 | 35854 ft | 435 kts | 256° |
| 2026-04-22 15:33 | 40.73720 | -100.94666 | 35855 ft | 435 kts | 256° |
| 2026-04-22 15:33 | 40.72392 | -101.02445 | 35848 ft | 435 kts | 256° |
| 2026-04-22 15:34 | 40.71048 | -101.10228 | 35843 ft | 435 kts | 256° |
| 2026-04-22 15:34 | 40.69698 | -101.18009 | 35838 ft | 436 kts | 256° |
| 2026-04-22 15:35 | 40.68338 | -101.25787 | 35840 ft | 436 kts | 256° |
| 2026-04-22 15:35 | 40.66980 | -101.33553 | 35841 ft | 432 kts | 256° |
| 2026-04-22 15:36 | 40.65611 | -101.41246 | 35840 ft | 432 kts | 256° |
| 2026-04-22 15:36 | 40.64249 | -101.48952 | 35840 ft | 432 kts | 256° |
| 2026-04-22 15:37 | 40.62886 | -101.56663 | 35840 ft | 433 kts | 256° |
| 2026-04-22 15:37 | 40.61506 | -101.64374 | 35839 ft | 433 kts | 255° |
| 2026-04-22 15:38 | 40.60113 | -101.72117 | 35843 ft | 436 kts | 255° |
| 2026-04-22 15:38 | 40.58018 | -101.83774 | 35836 ft | 437 kts | 255° |
| 2026-04-22 15:39 | 40.56609 | -101.91549 | 35840 ft | 437 kts | 255° |
| 2026-04-22 15:39 | 40.55191 | -101.99314 | 35832 ft | 437 kts | 255° |
| 2026-04-22 15:40 | 40.53769 | -102.07026 | 35839 ft | 436 kts | 255° |
| 2026-04-22 15:40 | 40.52315 | -102.14826 | 35840 ft | 436 kts | 255° |
| 2026-04-22 15:41 | 40.50873 | -102.22567 | 35842 ft | 436 kts | 255° |
| 2026-04-22 15:41 | 40.49434 | -102.30243 | 35843 ft | 436 kts | 255° |
| 2026-04-22 15:42 | 40.47991 | -102.37941 | 35491 ft | 431 kts | 255° |
| 2026-04-22 15:42 | 40.47272 | -102.41767 | 35190 ft | 432 kts | 255° |
| 2026-04-22 15:42 | 40.46546 | -102.45603 | 34926 ft | 433 kts | 255° |
| 2026-04-22 15:43 | 40.45815 | -102.49448 | 34673 ft | 434 kts | 255° |
| 2026-04-22 15:43 | 40.45089 | -102.53294 | 34397 ft | 435 kts | 255° |
| 2026-04-22 15:43 | 40.44362 | -102.57128 | 33769 ft | 431 kts | 255° |
| 2026-04-22 15:43 | 40.43637 | -102.60937 | 33048 ft | 430 kts | 255° |
| 2026-04-22 15:44 | 40.42907 | -102.64740 | 32286 ft | 429 kts | 255° |
| 2026-04-22 15:44 | 40.42179 | -102.68532 | 31614 ft | 426 kts | 255° |
| 2026-04-22 15:44 | 40.41466 | -102.72259 | 31184 ft | 417 kts | 255° |
| 2026-04-22 15:44 | 40.40764 | -102.75910 | 30793 ft | 407 kts | 255° |
| 2026-04-22 15:45 | 40.40077 | -102.79488 | 30402 ft | 405 kts | 255° |
| 2026-04-22 15:45 | 40.39386 | -102.83062 | 30002 ft | 403 kts | 255° |
| 2026-04-22 15:45 | 40.38698 | -102.86610 | 29587 ft | 400 kts | 255° |
| 2026-04-22 15:45 | 40.38011 | -102.90138 | 29164 ft | 398 kts | 255° |
| 2026-04-22 15:46 | 40.37330 | -102.93643 | 28738 ft | 396 kts | 255° |
| 2026-04-22 15:46 | 40.36653 | -102.97131 | 28313 ft | 393 kts | 255° |
| 2026-04-22 15:46 | 40.35975 | -103.00588 | 27879 ft | 390 kts | 254° |
| 2026-04-22 15:46 | 40.35302 | -103.04015 | 27129 ft | 388 kts | 254° |
| 2026-04-22 15:47 | 40.34632 | -103.07462 | 26162 ft | 392 kts | 254° |
| 2026-04-22 15:47 | 40.33958 | -103.10942 | 25152 ft | 396 kts | 255° |
| 2026-04-22 15:47 | 40.33279 | -103.14437 | 24307 ft | 395 kts | 255° |
| 2026-04-22 15:47 | 40.32603 | -103.17906 | 23558 ft | 391 kts | 254° |
| 2026-04-22 15:48 | 40.31922 | -103.21339 | 22835 ft | 387 kts | 254° |
| 2026-04-22 15:48 | 40.31250 | -103.24728 | 22142 ft | 382 kts | 254° |
| 2026-04-22 15:48 | 40.30597 | -103.28083 | 21427 ft | 379 kts | 254° |
| 2026-04-22 15:48 | 40.29944 | -103.31407 | 20746 ft | 374 kts | 254° |
| 2026-04-22 15:49 | 40.29289 | -103.34679 | 20057 ft | 370 kts | 254° |
| 2026-04-22 15:49 | 40.28654 | -103.37874 | 19387 ft | 366 kts | 254° |
| 2026-04-22 15:49 | 40.28017 | -103.41082 | 18723 ft | 362 kts | 254° |
| 2026-04-22 15:49 | 40.27386 | -103.44250 | 18057 ft | 358 kts | 254° |
| 2026-04-22 15:50 | 40.26757 | -103.47385 | 17386 ft | 354 kts | 253° |
| 2026-04-22 15:50 | 40.26134 | -103.50490 | 16709 ft | 351 kts | 254° |
| 2026-04-22 15:50 | 40.25516 | -103.53569 | 16032 ft | 348 kts | 254° |
| 2026-04-22 15:50 | 40.24904 | -103.56624 | 15402 ft | 347 kts | 254° |
| 2026-04-22 15:51 | 40.24295 | -103.59673 | 15067 ft | 346 kts | 254° |
| 2026-04-22 15:51 | 40.23693 | -103.62719 | 14962 ft | 346 kts | 255° |
| 2026-04-22 15:51 | 40.23082 | -103.65765 | 14938 ft | 346 kts | 254° |
| 2026-04-22 15:51 | 40.22475 | -103.68813 | 14936 ft | 347 kts | 254° |
| 2026-04-22 15:52 | 40.21870 | -103.71860 | 14939 ft | 345 kts | 254° |
| 2026-04-22 15:52 | 40.21269 | -103.74903 | 14948 ft | 346 kts | 254° |
| 2026-04-22 15:52 | 40.20663 | -103.77949 | 14947 ft | 346 kts | 254° |
| 2026-04-22 15:52 | 40.20053 | -103.80993 | 14947 ft | 347 kts | 252° |
| 2026-04-22 15:53 | 40.18988 | -103.83810 | 14944 ft | 347 kts | 232° |
| 2026-04-22 15:53 | 40.17302 | -103.86049 | 14957 ft | 347 kts | 220° |
| 2026-04-22 15:53 | 40.15412 | -103.88020 | 14959 ft | 347 kts | 218° |
| 2026-04-22 15:53 | 40.13494 | -103.89933 | 14899 ft | 348 kts | 217° |
| 2026-04-22 15:54 | 40.11560 | -103.91846 | 14645 ft | 348 kts | 217° |
| 2026-04-22 15:54 | 40.09630 | -103.93750 | 14308 ft | 347 kts | 217° |
| 2026-04-22 15:54 | 40.07707 | -103.95646 | 13941 ft | 346 kts | 217° |
| 2026-04-22 15:54 | 40.05845 | -103.97615 | 13566 ft | 344 kts | 221° |
| 2026-04-22 15:55 | 40.04057 | -103.99683 | 13195 ft | 343 kts | 222° |
| 2026-04-22 15:55 | 40.02286 | -104.01765 | 12820 ft | 342 kts | 222° |
| 2026-04-22 15:55 | 40.00550 | -104.03812 | 12451 ft | 340 kts | 222° |
| 2026-04-22 15:55 | 39.98771 | -104.05912 | 12072 ft | 340 kts | 222° |
| 2026-04-22 15:56 | 39.97044 | -104.07946 | 11704 ft | 338 kts | 222° |
| 2026-04-22 15:56 | 39.95304 | -104.09996 | 11329 ft | 337 kts | 222° |
| 2026-04-22 15:56 | 39.93564 | -104.12038 | 10952 ft | 336 kts | 222° |
| 2026-04-22 15:56 | 39.91837 | -104.14065 | 10567 ft | 329 kts | 222° |
| 2026-04-22 15:57 | 39.90164 | -104.16020 | 10190 ft | 318 kts | 222° |
| 2026-04-22 15:57 | 39.88546 | -104.17909 | 9815 ft | 308 kts | 222° |
| 2026-04-22 15:57 | 39.86999 | -104.19744 | 9430 ft | 300 kts | 226° |
| 2026-04-22 15:57 | 39.85903 | -104.21983 | 9084 ft | 293 kts | 251° |
| 2026-04-22 15:58 | 39.85633 | -104.24584 | 8990 ft | 292 kts | 275° |
| 2026-04-22 15:58 | 39.86145 | -104.27131 | 8988 ft | 292 kts | 292° |
| 2026-04-22 15:58 | 39.87001 | -104.29535 | 9003 ft | 293 kts | 291° |
| 2026-04-22 15:58 | 39.87536 | -104.32078 | 9007 ft | 292 kts | 278° |
| 2026-04-22 15:59 | 39.87669 | -104.34715 | 9016 ft | 292 kts | 267° |
| 2026-04-22 15:59 | 39.87523 | -104.37319 | 8672 ft | 286 kts | 270° |
| 2026-04-22 15:59 | 39.87551 | -104.39862 | 8422 ft | 275 kts | 268° |
| 2026-04-22 15:59 | 39.87572 | -104.42307 | 8171 ft | 265 kts | 269° |
| 2026-04-22 16:00 | 39.87590 | -104.44668 | 7836 ft | 258 kts | 268° |
| 2026-04-22 16:00 | 39.87609 | -104.46923 | 7509 ft | 240 kts | 268° |
| 2026-04-22 16:00 | 39.87626 | -104.49003 | 7246 ft | 220 kts | 268° |
| 2026-04-22 16:00 | 39.87640 | -104.50922 | 7045 ft | 206 kts | 268° |
| 2026-04-22 16:01 | 39.87655 | -104.52754 | 6753 ft | 199 kts | 268° |
| 2026-04-22 16:01 | 39.87667 | -104.54526 | 6452 ft | 193 kts | 268° |
| 2026-04-22 16:01 | 39.87681 | -104.56229 | 6202 ft | 181 kts | 268° |
| 2026-04-22 16:01 | 39.87692 | -104.57808 | 5973 ft | 168 kts | 268° |
| 2026-04-22 16:02 | 39.87708 | -104.59262 | 5714 ft | 158 kts | 268° |
| 2026-04-22 16:02 | 39.87723 | -104.60659 | 5549 ft | 154 kts | 266° |
| 2026-04-22 16:02 | 39.87722 | -104.62074 | 5340 ft | 156 kts | 268° |
| 2026-04-22 16:02 | 39.87727 | -104.63409 | 5332 ft | 130 kts | 270° |
| 2026-04-22 16:03 | 39.87737 | -104.64303 | 5341 ft | 69 kts | 269° |
| 2026-04-22 16:03 | 39.87727 | -104.64759 | 5348 ft | 31 kts | 270° |
| 2026-04-22 16:03 | 39.87723 | -104.64984 | 5352 ft | 23 kts | 248° |
| 2026-04-22 16:03 | 39.87648 | -104.65179 | 5354 ft | 25 kts | 239° |
| 2026-04-22 16:04 | 39.87587 | -104.65382 | 5356 ft | 12 kts | 267° |
| 2026-04-22 16:04 | 39.87584 | -104.65508 | 5358 ft | 16 kts | 269° |
| 2026-04-22 16:04 | 39.87582 | -104.65669 | 5360 ft | 20 kts | 270° |
| 2026-04-22 16:04 | 39.87586 | -104.65868 | 5363 ft | 24 kts | 272° |
| 2026-04-22 16:05 | 39.87589 | -104.66021 | 5365 ft | 26 kts | 270° |
| 2026-04-22 16:05 | 39.87565 | -104.66208 | 5367 ft | 13 kts | 204° |
| 2026-04-22 16:05 | 39.87483 | -104.66267 | 5366 ft | 17 kts | 256° |
| 2026-04-22 16:05 | 39.87383 | -104.66333 | 5367 ft | 20 kts | 173° |
| 2026-04-22 16:06 | 39.87232 | -104.66329 | 5370 ft | 23 kts | 180° |
| 2026-04-22 16:06 | 39.87061 | -104.66331 | 5370 ft | 26 kts | 180° |
| 2026-04-22 16:06 | 39.86873 | -104.66334 | 5376 ft | 20 kts | 182° |
| 2026-04-22 16:06 | 39.86758 | -104.66338 | 5379 ft | 18 kts | 180° |
| 2026-04-22 16:07 | 39.86620 | -104.66338 | 5383 ft | 21 kts | 180° |
| 2026-04-22 16:07 | 39.86463 | -104.66337 | 5382 ft | 24 kts | 180° |
| 2026-04-22 16:07 | 39.86288 | -104.66340 | 5383 ft | 26 kts | 181° |
| 2026-04-22 16:07 | 39.86099 | -104.66345 | 5384 ft | 28 kts | 181° |
| 2026-04-22 16:08 | 39.85946 | -104.66346 | 5390 ft | 21 kts | 180° |
| 2026-04-22 16:08 | 39.85794 | -104.66347 | 5388 ft | 23 kts | 180° |
| 2026-04-22 16:08 | 39.85680 | -104.66397 | 5390 ft | 17 kts | 264° |
| 2026-04-22 16:08 | 39.85670 | -104.66548 | 5386 ft | 17 kts | 247° |
| 2026-04-22 16:09 | 39.85659 | -104.66707 | 5387 ft | 19 kts | 271° |
| 2026-04-22 16:09 | 39.85698 | -104.66875 | 5383 ft | 21 kts | 311° |
| 2026-04-22 16:09 | 39.85728 | -104.67037 | 5385 ft | 20 kts | 269° |
| 2026-04-22 16:09 | 39.85729 | -104.67227 | 5385 ft | 22 kts | 270° |
| 2026-04-22 16:10 | 39.85731 | -104.67437 | 5385 ft | 24 kts | 270° |
| 2026-04-22 16:10 | 39.85732 | -104.67615 | 5385 ft | 7 kts | 270° |
| 2026-04-22 16:10 | 39.85736 | -104.67658 | 5385 ft | 8 kts | 303° |
| 2026-04-22 16:10 | 39.85800 | -104.67677 | 5385 ft | 0 kts | 360° |
| 2026-04-22 16:11 | 39.85803 | -104.67677 | 5385 ft | 1 kts | 360° |
| 2026-04-22 16:11 | 39.85805 | -104.67677 | 5384 ft | 0 kts | 360° |